Time;durP1;ratioP1;P1;durP2;ratioP2;P2;SDS_P1;SDS_P2;PMS_P1;PMS_P2;Temp;Humidity;BMP_temperature;BMP_pressure;BME280_temperature;BME280_humidity;BME280_pressure;Samples;Min_cycle;Max_cycle;Signal;HPM_P1;HPM_P2
2022/07/30 00:00:57;;;;;;;13.77;4.47;;;;;;;16.69;81.75;101639.66;5095985;28;20027;-87
2022/07/30 00:03:22;;;;;;;8.13;4.70;;;;;;;16.66;82.11;101637.38;5114619;27;20027;-87
2022/07/30 00:05:48;;;;;;;14.07;4.97;;;;;;;16.63;82.71;101635.94;5116926;27;20066;-86
2022/07/30 00:08:13;;;;;;;13.73;5.60;;;;;;;16.61;83.24;101632.63;5116896;27;20034;-86
2022/07/30 00:10:40;;;;;;;12.63;5.30;;;;;;;16.57;83.89;101634.16;5117214;27;20362;-87
2022/07/30 00:13:06;;;;;;;11.95;5.43;;;;;;;16.55;84.37;101632.72;5116390;28;20062;-87
2022/07/30 00:15:31;;;;;;;11.80;5.77;;;;;;;16.50;84.92;101630.69;5116321;27;20035;-86
2022/07/30 00:17:57;;;;;;;14.38;6.63;;;;;;;16.44;85.76;101626.16;5134512;27;20023;-86
2022/07/30 00:20:22;;;;;;;10.97;5.80;;;;;;;16.42;85.77;101617.34;5117131;27;20108;-86
2022/07/30 00:22:48;;;;;;;10.18;5.78;;;;;;;16.38;85.66;101622.44;5099422;28;20427;-86
2022/07/30 00:25:13;;;;;;;18.07;6.07;;;;;;;16.35;86.21;101622.94;5099273;28;20466;-86
2022/07/30 00:27:39;;;;;;;9.43;5.77;;;;;;;16.31;86.97;101618.97;5134796;27;20102;-86
2022/07/30 00:30:05;;;;;;;14.33;6.57;;;;;;;16.28;86.94;101622.19;5134259;28;20031;-87
2022/07/30 00:32:31;;;;;;;9.23;5.97;;;;;;;16.21;87.67;101627.78;5121584;27;20121;-87
2022/07/30 00:34:56;;;;;;;16.02;6.78;;;;;;;16.18;88.10;101633.72;5122960;27;20109;-86
2022/07/30 00:37:22;;;;;;;15.00;6.33;;;;;;;16.16;88.56;101635.03;5105697;27;20035;-86
2022/07/30 00:39:47;;;;;;;10.70;6.67;;;;;;;16.09;88.75;101629.63;5106864;27;20027;-86
2022/07/30 00:42:13;;;;;;;13.65;6.95;;;;;;;16.06;89.09;101635.59;5123738;27;20027;-86
2022/07/30 00:44:40;;;;;;;18.33;7.40;;;;;;;16.03;89.69;101633.31;5141478;27;20455;-86
2022/07/30 00:47:05;;;;;;;15.25;7.32;;;;;;;15.98;90.54;101634.00;5106755;27;20039;-87
2022/07/30 00:49:31;;;;;;;12.90;7.55;;;;;;;15.98;90.90;101633.19;5123029;27;20477;-86
2022/07/30 00:51:56;;;;;;;12.10;7.13;;;;;;;15.94;90.67;101628.19;5122682;27;20034;-86
2022/07/30 00:54:22;;;;;;;15.00;7.57;;;;;;;15.92;91.53;101629.47;5122702;27;20045;-86
2022/07/30 00:56:47;;;;;;;16.47;8.00;;;;;;;15.89;91.55;101625.28;5141288;27;20097;-86
2022/07/30 00:59:13;;;;;;;21.20;8.50;;;;;;;15.87;91.86;101621.97;5123097;27;20035;-86
2022/07/30 01:01:39;;;;;;;16.87;8.07;;;;;;;15.85;92.62;101629.56;5122858;27;20042;-86
2022/07/30 01:04:10;;;;;;;15.43;8.32;;;;;;;15.80;92.36;101621.22;5122538;27;20102;-86
2022/07/30 01:06:35;;;;;;;16.10;8.40;;;;;;;15.79;92.59;101622.28;5141261;27;20088;-86
2022/07/30 01:09:01;;;;;;;16.60;9.35;;;;;;;15.74;93.36;101612.00;5141162;27;20474;-86
2022/07/30 01:11:34;;;;;;;16.57;8.67;;;;;;;15.72;93.75;101616.03;5139938;27;20081;-88
2022/07/30 01:14:00;;;;;;;17.77;8.60;;;;;;;15.69;93.81;101616.50;5122927;27;20054;-86
2022/07/30 01:16:26;;;;;;;14.70;8.83;;;;;;;15.68;93.92;101620.28;5088727;27;20073;-86
2022/07/30 01:21:42;;;;;;;15.68;8.73;;;;;;;15.63;94.59;101622.88;5140893;27;20122;-86
2022/07/30 01:24:24;;;;;;;18.85;9.18;;;;;;;15.57;94.97;101617.25;5122191;27;20118;-86
2022/07/30 01:26:50;;;;;;;18.63;9.37;;;;;;;15.58;94.82;101623.59;5141090;27;20034;-86
2022/07/30 01:29:17;;;;;;;15.45;9.15;;;;;;;15.51;95.32;101617.34;5141044;27;20035;-86
2022/07/30 01:31:44;;;;;;;15.38;9.95;;;;;;;15.47;96.18;101622.44;5122388;27;20049;-86
2022/07/30 01:34:13;;;;;;;18.33;9.77;;;;;;;15.44;96.60;101620.16;5122604;27;20455;-87
2022/07/30 01:36:41;;;;;;;21.80;10.18;;;;;;;15.37;97.34;101624.91;5122464;27;20463;-86
2022/07/30 01:39:07;;;;;;;22.07;10.50;;;;;;;15.33;97.51;101620.94;5122515;27;20062;-87
2022/07/30 01:41:33;;;;;;;20.73;10.77;;;;;;;15.32;97.19;101622.00;5123244;27;20114;-86
2022/07/30 01:44:00;;;;;;;17.83;11.70;;;;;;;15.30;97.95;101619.50;5102841;27;20121;-86
2022/07/30 01:46:27;;;;;;;24.40;12.07;;;;;;;15.27;97.94;101623.50;5137304;27;20403;-87
2022/07/30 01:48:54;;;;;;;22.23;11.60;;;;;;;15.24;98.42;101623.16;5119675;27;20112;-86
2022/07/30 01:51:20;;;;;;;17.40;10.80;;;;;;;15.22;98.48;101620.66;5119641;27;20031;-87
2022/07/30 01:53:49;;;;;;;24.08;12.95;;;;;;;15.19;100.00;101623.84;5119492;27;20080;-87
2022/07/30 01:56:16;;;;;;;20.05;12.07;;;;;;;15.17;99.45;101625.94;5118948;27;20379;-86
2022/07/30 01:58:42;;;;;;;24.95;13.27;;;;;;;15.17;99.96;101627.84;5137389;27;20038;-86
2022/07/30 02:01:08;;;;;;;26.13;13.77;;;;;;;15.13;99.99;101623.91;5119134;27;20031;-86
2022/07/30 02:03:34;;;;;;;31.25;14.40;;;;;;;15.08;100.00;101624.56;5118754;27;20406;-85
2022/07/30 02:06:05;;;;;;;24.50;13.97;;;;;;;15.06;100.00;101627.53;5118896;27;20081;-86
2022/07/30 02:08:42;;;;;;;24.75;13.93;;;;;;;15.02;100.00;101629.03;5137276;27;20467;-86
2022/07/30 02:11:14;;;;;;;26.77;14.60;;;;;;;14.96;100.00;101632.69;5118732;27;20037;-86
2022/07/30 02:13:46;;;;;;;22.30;13.93;;;;;;;14.96;100.00;101631.88;5118892;27;20029;-86
2022/07/30 02:16:25;;;;;;;28.13;15.52;;;;;;;14.88;100.00;101635.69;5136888;27;20475;-86
2022/07/30 02:19:11;;;;;;;25.77;14.87;;;;;;;14.87;100.00;101634.06;5118949;27;20121;-86
2022/07/30 02:21:40;;;;;;;24.65;15.02;;;;;;;14.78;100.00;101625.31;5137054;27;20097;-86
2022/07/30 02:24:11;;;;;;;23.52;14.45;;;;;;;14.76;100.00;101624.66;5136928;27;20555;-86
2022/07/30 02:26:39;;;;;;;25.88;14.90;;;;;;;14.74;100.00;101626.81;5118451;27;20031;-86
2022/07/30 02:29:06;;;;;;;27.00;15.52;;;;;;;14.71;100.00;101630.00;5136816;27;20035;-86
2022/07/30 02:31:33;;;;;;;23.93;15.07;;;;;;;14.69;100.00;101630.22;5101634;27;20032;-87
2022/07/30 02:34:01;;;;;;;26.98;15.68;;;;;;;14.66;100.00;101627.94;5118190;27;20459;-86
2022/07/30 02:36:28;;;;;;;26.48;14.77;;;;;;;14.67;100.00;101637.78;5136407;27;20106;-86
2022/07/30 02:38:55;;;;;;;24.65;15.32;;;;;;;14.67;100.00;101635.03;5136514;27;20031;-86
2022/07/30 02:41:23;;;;;;;21.55;14.82;;;;;;;14.65;100.00;101639.91;5118157;27;20042;-86
2022/07/30 02:43:51;;;;;;;27.67;14.40;;;;;;;14.60;100.00;101645.19;5136495;27;20482;-86
2022/07/30 02:46:17;;;;;;;25.35;14.25;;;;;;;14.60;100.00;101642.47;5100962;27;20041;-86
2022/07/30 02:48:46;;;;;;;27.88;15.20;;;;;;;14.59;100.00;101629.03;5136453;27;20043;-86
2022/07/30 02:51:15;;;;;;;28.77;16.17;;;;;;;14.56;100.00;101639.31;5136417;27;20083;-86
2022/07/30 02:53:44;;;;;;;26.88;16.02;;;;;;;14.53;100.00;101636.22;5136569;27;20114;-86
2022/07/30 02:56:11;;;;;;;33.83;17.07;;;;;;;14.48;100.00;101642.34;5136152;27;20023;-87
2022/07/30 02:58:38;;;;;;;27.35;16.98;;;;;;;14.46;100.00;101640.88;5135962;27;20031;-86
2022/07/30 03:01:05;;;;;;;30.13;16.90;;;;;;;14.42;100.00;101648.66;5117656;27;20532;-86
2022/07/30 03:03:31;;;;;;;29.95;16.33;;;;;;;14.38;100.00;101645.56;5100441;27;20055;-87
2022/07/30 03:05:58;;;;;;;28.02;17.42;;;;;;;14.35;100.00;101643.28;5117764;27;20371;-86
2022/07/30 03:08:26;;;;;;;25.40;16.67;;;;;;;14.33;100.00;101648.09;5101362;27;20035;-86
2022/07/30 03:10:56;;;;;;;28.27;17.38;;;;;;;14.32;100.00;101656.50;5117606;27;20033;-86
2022/07/30 03:13:23;;;;;;;27.65;17.50;;;;;;;14.30;100.00;101661.38;5117834;27;20031;-86
2022/07/30 03:15:50;;;;;;;30.15;18.17;;;;;;;14.28;100.00;101655.31;5135776;27;20063;-86
2022/07/30 03:18:17;;;;;;;29.50;18.27;;;;;;;14.23;100.00;101646.91;5117381;27;20475;-86
2022/07/30 03:20:50;;;;;;;35.30;18.93;;;;;;;14.22;100.00;101651.56;5117620;27;20098;-85
2022/07/30 03:23:18;;;;;;;34.85;18.70;;;;;;;14.19;100.00;101654.72;5117186;27;20023;-86
2022/07/30 03:25:53;;;;;;;31.23;18.05;;;;;;;14.18;100.00;101650.31;5117159;27;20367;-86
2022/07/30 03:28:20;;;;;;;29.33;18.17;;;;;;;14.16;100.00;101647.81;5117325;27;20076;-86
2022/07/30 03:30:45;;;;;;;31.05;18.40;;;;;;;14.12;100.00;101634.81;5117213;27;20023;-86
2022/07/30 03:33:12;;;;;;;29.67;18.60;;;;;;;14.13;100.00;101637.34;5100414;27;20506;-86
2022/07/30 03:35:41;;;;;;;31.77;18.17;;;;;;;14.11;100.00;101639.44;5100557;27;20046;-86
2022/07/30 03:38:10;;;;;;;29.20;18.63;;;;;;;14.10;100.00;101645.09;5116927;27;20034;-86
2022/07/30 03:40:36;;;;;;;34.70;18.98;;;;;;;14.08;100.00;101650.78;5117206;27;20467;-86
2022/07/30 03:43:02;;;;;;;33.53;17.93;;;;;;;14.07;100.00;101648.28;5083368;27;20023;-86
2022/07/30 03:45:29;;;;;;;32.15;18.52;;;;;;;14.05;100.00;101651.22;5116904;27;20031;-86
2022/07/30 03:47:56;;;;;;;28.23;17.15;;;;;;;14.05;100.00;101656.69;5099933;27;20038;-86
2022/07/30 03:50:22;;;;;;;27.70;18.20;;;;;;;14.01;100.00;101653.56;5117151;27;20035;-86
2022/07/30 03:52:48;;;;;;;30.00;17.10;;;;;;;14.01;100.00;101655.44;5135468;27;20031;-86
2022/07/30 03:55:14;;;;;;;35.03;18.20;;;;;;;13.98;100.00;101656.72;5099805;27;20037;-86
2022/07/30 03:57:39;;;;;;;28.95;16.65;;;;;;;13.98;100.00;101662.19;5099702;27;20116;-86
2022/07/30 04:00:07;;;;;;;28.17;17.57;;;;;;;13.99;100.00;101673.94;5116725;27;20069;-86
2022/07/30 04:02:46;;;;;;;28.13;17.55;;;;;;;13.98;100.00;101662.19;5116623;27;20035;-86
2022/07/30 04:05:12;;;;;;;30.63;18.25;;;;;;;13.97;100.00;101671.41;5135196;27;20054;-86
2022/07/30 04:07:38;;;;;;;34.27;18.00;;;;;;;13.99;100.00;101673.94;5116033;28;20031;-86
2022/07/30 04:10:04;;;;;;;29.08;17.15;;;;;;;13.99;100.00;101672.03;5116539;27;20031;-86
2022/07/30 04:12:30;;;;;;;29.88;16.73;;;;;;;13.98;100.00;101667.66;5099425;27;20462;-86
2022/07/30 04:14:56;;;;;;;30.73;17.30;;;;;;;13.99;100.00;101676.66;5116345;27;20037;-86
2022/07/30 04:17:27;;;;;;;28.85;17.38;;;;;;;13.98;100.00;101683.16;5134755;27;20023;-86
2022/07/30 04:19:59;;;;;;;28.90;16.03;;;;;;;13.98;100.00;101689.47;5116804;28;20118;-85
2022/07/30 04:22:31;;;;;;;27.48;16.45;;;;;;;13.97;100.00;101693.25;5135131;27;20107;-86
2022/07/30 04:24:58;;;;;;;32.00;17.98;;;;;;;13.97;100.00;101689.69;5116276;28;20034;-86
2022/07/30 04:27:25;;;;;;;29.35;16.25;;;;;;;13.96;100.00;101688.84;5134784;27;20059;-85
2022/07/30 04:29:52;;;;;;;30.70;18.05;;;;;;;13.94;100.00;101684.66;5116317;28;20030;-86
2022/07/30 04:32:18;;;;;;;29.40;16.07;;;;;;;13.97;100.00;101689.69;5099454;28;20490;-86
2022/07/30 04:34:49;;;;;;;29.50;16.38;;;;;;;13.99;100.00;101690.31;5116314;28;20020;-86
2022/07/30 04:37:16;;;;;;;29.15;16.02;;;;;;;13.98;100.00;101689.47;5100348;28;20367;-86
2022/07/30 04:39:41;;;;;;;24.23;14.80;;;;;;;14.00;100.00;101694.72;5134685;28;20431;-86
2022/07/30 04:42:07;;;;;;;30.30;16.50;;;;;;;14.00;100.00;101700.16;5116322;28;20035;-85
2022/07/30 04:44:33;;;;;;;28.87;16.37;;;;;;;14.01;100.00;101702.69;5116371;28;20113;-85
2022/07/30 04:46:58;;;;;;;28.48;16.88;;;;;;;14.00;100.00;101711.91;5116195;28;20035;-86
2022/07/30 04:49:26;;;;;;;30.35;16.58;;;;;;;14.03;100.00;101716.94;5116240;28;20031;-86
2022/07/30 04:51:53;;;;;;;25.67;16.07;;;;;;;14.07;100.00;101713.75;5115802;28;20031;-86
2022/07/30 04:54:19;;;;;;;25.95;16.67;;;;;;;14.07;100.00;101711.03;5082394;28;20031;-86
2022/07/30 04:56:47;;;;;;;27.58;16.17;;;;;;;14.06;100.00;101721.13;5098929;28;20141;-85
2022/07/30 04:59:15;;;;;;;26.02;16.35;;;;;;;14.09;100.00;101712.50;5099400;28;20043;-86
2022/07/30 05:01:41;;;;;;;28.23;16.70;;;;;;;14.10;100.00;101716.91;5115918;28;20032;-86
2022/07/30 05:04:09;;;;;;;25.20;16.17;;;;;;;14.13;100.00;101716.47;5098716;28;20078;-86
2022/07/30 05:06:36;;;;;;;24.48;15.38;;;;;;;14.20;100.00;101725.47;5115829;28;20035;-85
2022/07/30 05:09:02;;;;;;;21.88;14.52;;;;;;;14.27;100.00;101722.69;5116089;28;20390;-85
2022/07/30 05:11:28;;;;;;;25.17;15.38;;;;;;;14.33;100.00;101721.81;5098964;28;20031;-84
2022/07/30 05:13:53;;;;;;;24.73;14.80;;;;;;;14.42;100.00;101721.56;5116364;28;20034;-84
2022/07/30 05:16:19;;;;;;;22.50;14.00;;;;;;;14.48;100.00;101717.94;5082331;28;20062;-85
2022/07/30 05:18:44;;;;;;;30.63;14.97;;;;;;;14.55;100.00;101721.47;5118591;27;20035;-85
2022/07/30 05:21:10;;;;;;;23.03;14.33;;;;;;;14.63;100.00;101723.97;5119668;27;20346;-84
2022/07/30 05:23:35;;;;;;;22.57;14.37;;;;;;;14.73;100.00;101716.13;5138409;27;20185;-85
2022/07/30 05:26:01;;;;;;;23.13;13.97;;;;;;;14.79;100.00;101717.09;5103163;27;20023;-83
2022/07/30 05:28:26;;;;;;;20.52;13.27;;;;;;;14.86;100.00;101717.88;5138018;27;20364;-86
2022/07/30 05:30:55;;;;;;;22.90;14.03;;;;;;;14.88;100.00;101720.41;5119986;27;20368;-85
2022/07/30 05:33:21;;;;;;;23.60;14.00;;;;;;;14.95;100.00;101732.09;5102512;27;20482;-85
2022/07/30 05:35:48;;;;;;;23.35;14.35;;;;;;;14.99;100.00;101725.16;5137800;27;20034;-85
2022/07/30 05:38:15;;;;;;;30.87;14.50;;;;;;;15.03;100.00;101737.31;5102793;27;20031;-85
2022/07/30 05:40:43;;;;;;;23.02;14.43;;;;;;;15.06;100.00;101730.56;5138077;27;20073;-84
2022/07/30 05:43:08;;;;;;;22.55;14.00;;;;;;;15.15;100.00;101731.13;5138073;27;20134;-86
2022/07/30 05:45:34;;;;;;;19.80;13.68;;;;;;;15.22;100.00;101734.59;5102339;27;20530;-85
2022/07/30 05:47:59;;;;;;;23.73;13.90;;;;;;;15.27;100.00;101732.88;5102456;27;20114;-85
2022/07/30 05:50:25;;;;;;;23.20;13.17;;;;;;;15.34;100.00;101727.34;5101875;27;20126;-85
2022/07/30 05:52:50;;;;;;;19.77;13.67;;;;;;;15.42;100.00;101729.78;5119529;27;20059;-85
2022/07/30 05:55:17;;;;;;;27.73;13.23;;;;;;;15.52;100.00;101732.00;5118716;27;20462;-85
2022/07/30 05:57:42;;;;;;;22.27;13.43;;;;;;;15.56;100.00;101737.84;5119065;27;20511;-84
2022/07/30 06:00:10;;;;;;;19.73;12.57;;;;;;;15.58;100.00;101738.47;5085104;27;20035;-85
2022/07/30 06:02:36;;;;;;;17.55;13.00;;;;;;;15.64;100.00;101736.72;5137231;27;20461;-85
2022/07/30 06:05:02;;;;;;;22.58;13.63;;;;;;;15.67;100.00;101739.81;5118518;27;20047;-86
2022/07/30 06:07:28;;;;;;;16.83;11.88;;;;;;;15.74;100.00;101745.22;5137280;27;20030;-85
2022/07/30 06:09:53;;;;;;;21.53;12.60;;;;;;;15.77;99.32;101744.78;5118855;27;20024;-85
2022/07/30 06:12:18;;;;;;;19.07;12.80;;;;;;;15.83;98.91;101751.28;5118864;27;20524;-85
2022/07/30 06:14:44;;;;;;;23.23;12.23;;;;;;;15.86;99.12;101757.09;5084869;27;20032;-85
2022/07/30 06:17:09;;;;;;;18.20;12.25;;;;;;;15.92;98.48;101745.25;5101806;27;20038;-84
2022/07/30 06:19:35;;;;;;;21.77;12.70;;;;;;;16.00;98.20;101752.28;5101482;27;20110;-84
2022/07/30 06:22:00;;;;;;;19.53;12.00;;;;;;;16.04;98.53;101745.31;5136760;27;20023;-85
2022/07/30 06:24:25;;;;;;;18.77;11.47;;;;;;;16.12;98.18;101753.22;5102085;27;20381;-84
2022/07/30 06:26:51;;;;;;;19.53;11.83;;;;;;;16.17;97.91;101752.50;5101802;27;20026;-85
2022/07/30 06:29:16;;;;;;;14.63;11.60;;;;;;;16.22;97.09;101758.13;5100163;27;20455;-85
2022/07/30 06:31:42;;;;;;;20.83;10.87;;;;;;;16.26;96.40;101759.34;5118385;27;20257;-85
2022/07/30 06:34:07;;;;;;;19.03;10.67;;;;;;;16.29;96.08;101758.03;5118483;27;20024;-84
2022/07/30 06:36:33;;;;;;;14.15;10.43;;;;;;;16.35;95.90;101756.28;5118343;27;20045;-84
2022/07/30 06:38:58;;;;;;;22.10;10.63;;;;;;;16.37;95.27;101751.41;5136757;27;20058;-85
2022/07/30 06:41:24;;;;;;;15.87;10.37;;;;;;;16.42;94.74;101759.78;5136671;27;20026;-84
2022/07/30 06:43:50;;;;;;;18.13;10.27;;;;;;;16.43;94.65;101756.81;5101486;27;20031;-84
2022/07/30 06:46:15;;;;;;;15.63;10.00;;;;;;;16.53;94.87;101758.13;5136834;27;20023;-84
2022/07/30 06:48:41;;;;;;;10.98;7.03;;;;;;;16.54;92.17;101763.38;5136517;27;20031;-84
2022/07/30 06:51:06;;;;;;;20.10;7.73;;;;;;;16.64;92.15;101763.66;5100992;27;20027;-85
2022/07/30 06:53:32;;;;;;;14.13;8.10;;;;;;;16.72;92.17;101759.72;5100822;27;20186;-85
2022/07/30 06:55:57;;;;;;;9.43;6.47;;;;;;;16.80;91.67;101762.16;5100918;27;20031;-85
2022/07/30 06:58:23;;;;;;;12.20;6.30;;;;;;;16.92;89.80;101764.09;5101128;27;20023;-86
2022/07/30 07:00:48;;;;;;;12.27;5.90;;;;;;;17.12;89.83;101767.34;5136306;27;20408;-85
2022/07/30 07:03:13;;;;;;;13.23;6.13;;;;;;;17.33;88.25;101768.69;5101151;27;20030;-86
2022/07/30 07:05:39;;;;;;;11.10;6.63;;;;;;;17.57;87.33;101784.28;5118323;27;20446;-86
2022/07/30 07:08:04;;;;;;;13.83;6.73;;;;;;;17.65;86.24;101772.94;5117820;27;20027;-85
2022/07/30 07:10:30;;;;;;;16.27;6.13;;;;;;;17.88;85.15;101767.41;5117328;27;20279;-86
2022/07/30 07:12:55;;;;;;;13.83;6.47;;;;;;;18.22;83.61;101770.34;5134818;27;20031;-86
2022/07/30 07:15:21;;;;;;;7.97;5.57;;;;;;;18.61;81.86;101775.19;5117911;27;20026;-86
2022/07/30 07:17:47;;;;;;;11.77;5.40;;;;;;;18.86;78.33;101772.09;5135834;27;20455;-85
2022/07/30 07:20:12;;;;;;;9.03;4.17;;;;;;;18.91;76.15;101769.44;5117482;27;20023;-86
2022/07/30 07:22:37;;;;;;;8.70;4.30;;;;;;;19.00;75.70;101767.09;5100320;27;20041;-85
2022/07/30 07:25:04;;;;;;;7.18;3.75;;;;;;;19.09;75.03;101768.34;5117211;27;20023;-85
2022/07/30 07:27:29;;;;;;;9.23;4.30;;;;;;;19.11;74.55;101768.91;5136256;27;20027;-82
2022/07/30 07:29:55;;;;;;;8.75;3.75;;;;;;;19.20;75.32;101769.34;5100863;27;20031;-86
2022/07/30 07:32:20;;;;;;;9.00;4.17;;;;;;;19.19;72.78;101772.34;5135459;27;20034;-86
2022/07/30 07:34:45;;;;;;;7.77;2.90;;;;;;;19.13;71.58;101776.91;5134311;27;20023;-86
2022/07/30 07:37:11;;;;;;;9.40;3.10;;;;;;;19.05;72.99;101778.19;5100194;27;20488;-86
2022/07/30 07:39:36;;;;;;;8.27;3.45;;;;;;;18.99;72.25;101775.59;5100119;27;20459;-86
2022/07/30 07:42:02;;;;;;;9.23;3.40;;;;;;;19.00;72.00;101772.59;5135615;27;20098;-86
2022/07/30 07:44:27;;;;;;;9.90;3.30;;;;;;;19.00;71.26;101769.00;5135711;27;20042;-86
2022/07/30 07:46:53;;;;;;;8.67;3.40;;;;;;;19.13;71.29;101773.34;5134129;27;20748;-86
2022/07/30 07:49:18;;;;;;;7.07;2.53;;;;;;;19.26;70.89;101770.25;5100299;27;20351;-85
2022/07/30 07:51:43;;;;;;;8.40;3.00;;;;;;;19.26;69.53;101764.75;5116860;27;20559;-86
2022/07/30 07:54:09;;;;;;;11.23;3.33;;;;;;;19.12;70.67;101767.03;5082828;27;20031;-86
2022/07/30 07:56:34;;;;;;;8.63;2.83;;;;;;;19.03;71.69;101772.09;5116981;27;20027;-86
2022/07/30 07:59:00;;;;;;;7.70;2.95;;;;;;;18.98;70.89;101768.44;5135142;27;20363;-86
2022/07/30 08:01:25;;;;;;;8.20;3.00;;;;;;;18.92;70.95;101773.81;5099821;27;20059;-87
2022/07/30 08:03:51;;;;;;;7.47;3.20;;;;;;;18.93;71.61;101770.00;5099868;27;20402;-86
2022/07/30 08:06:16;;;;;;;5.80;2.90;;;;;;;18.89;71.66;101771.59;5100049;27;20362;-86
2022/07/30 08:08:41;;;;;;;7.78;3.20;;;;;;;18.92;71.78;101771.09;5099731;27;20027;-88
2022/07/30 08:11:07;;;;;;;7.83;3.50;;;;;;;18.95;71.88;101772.50;5116624;28;20023;-86
2022/07/30 08:13:32;;;;;;;4.63;2.83;;;;;;;18.92;70.36;101779.31;5099911;27;20122;-86
2022/07/30 08:16:00;;;;;;;8.03;2.57;;;;;;;18.88;69.80;101774.56;5134382;27;20535;-85
2022/07/30 08:18:25;;;;;;;6.30;2.60;;;;;;;18.91;70.16;101771.34;5117068;27;20130;-86
2022/07/30 08:20:51;;;;;;;6.63;2.60;;;;;;;18.91;69.36;101771.34;5083701;28;20062;-86
2022/07/30 08:23:18;;;;;;;5.93;2.60;;;;;;;18.88;68.24;101763.59;5116192;27;20401;-86
2022/07/30 08:25:43;;;;;;;6.25;2.90;;;;;;;18.82;68.65;101761.81;5116549;27;20065;-86
2022/07/30 08:28:09;;;;;;;7.90;3.40;;;;;;;18.85;69.62;101762.16;5116664;27;20027;-86
2022/07/30 08:30:35;;;;;;;11.10;3.03;;;;;;;18.88;69.94;101780.94;5099212;28;20027;-86
2022/07/30 08:33:01;;;;;;;7.65;2.60;;;;;;;18.86;69.04;101774.00;5135147;28;20026;-86
2022/07/30 08:35:26;;;;;;;6.93;3.30;;;;;;;18.86;68.12;101774.00;5134865;28;20027;-86
2022/07/30 08:37:52;;;;;;;6.17;2.97;;;;;;;18.89;68.66;101776.25;5099330;28;20050;-86
2022/07/30 08:40:19;;;;;;;6.60;2.50;;;;;;;18.90;68.54;101766.94;5134587;28;20034;-86
2022/07/30 08:42:45;;;;;;;6.20;3.22;;;;;;;18.93;69.27;101766.44;5134660;28;20101;-86
2022/07/30 08:45:13;;;;;;;4.28;2.33;;;;;;;18.98;67.28;101771.19;5116137;28;20382;-86
2022/07/30 08:47:43;;;;;;;8.85;3.00;;;;;;;18.98;67.06;101766.50;5116140;28;20033;-86
2022/07/30 08:50:09;;;;;;;6.80;2.67;;;;;;;18.96;67.51;101767.84;5116312;28;20459;-86
2022/07/30 08:52:36;;;;;;;7.13;3.10;;;;;;;19.01;68.10;101770.69;5116848;27;20019;-86
2022/07/30 08:55:03;;;;;;;9.20;3.10;;;;;;;19.02;67.31;101770.44;5120508;27;20467;-86
2022/07/30 08:57:30;;;;;;;6.72;2.90;;;;;;;19.04;67.07;101765.50;5120451;27;20067;-86
2022/07/30 08:59:59;;;;;;;5.73;2.60;;;;;;;19.13;66.16;101765.91;5120901;27;20016;-86
2022/07/30 09:02:25;;;;;;;7.63;3.22;;;;;;;19.18;65.36;101760.50;5139610;27;20026;-87
2022/07/30 09:04:51;;;;;;;7.78;2.85;;;;;;;19.26;65.00;101762.81;5138742;27;20047;-86
2022/07/30 09:07:17;;;;;;;4.93;2.78;;;;;;;19.33;63.12;101764.59;5138092;27;20114;-86
2022/07/30 09:09:42;;;;;;;7.07;2.77;;;;;;;19.40;64.74;101760.56;5120725;27;20064;-86
2022/07/30 09:12:34;;;;;;;5.60;2.70;;;;;;;19.52;65.49;101762.41;5120105;27;20408;-86
2022/07/30 09:15:19;;;;;;;7.77;2.80;;;;;;;19.63;65.40;101777.94;5102483;27;20035;-86
2022/07/30 09:17:48;;;;;;;7.40;2.63;;;;;;;19.73;62.85;101771.75;5119632;27;20027;-86
2022/07/30 09:20:14;;;;;;;6.22;2.85;;;;;;;19.77;62.62;101767.41;5119199;27;20049;-85
2022/07/30 09:23:04;;;;;;;5.85;2.78;;;;;;;19.83;62.37;101773.81;5119555;27;20033;-86
2022/07/30 09:25:38;;;;;;;6.57;3.20;;;;;;;19.92;62.71;101780.59;5118762;27;20130;-86
2022/07/30 09:28:05;;;;;;;6.10;2.80;;;;;;;20.01;62.06;101794.75;5138043;27;20031;-85
2022/07/30 09:30:53;;;;;;;6.18;2.70;;;;;;;20.11;61.33;101789.34;5119707;27;20035;-83
2022/07/30 09:33:39;;;;;;;5.60;2.70;;;;;;;20.16;61.20;101792.16;5120117;27;20408;-83
2022/07/30 09:36:06;;;;;;;5.22;2.33;;;;;;;20.25;60.26;101792.53;5119273;27;20043;-84
2022/07/30 09:38:53;;;;;;;7.38;2.58;;;;;;;20.36;60.85;101796.25;5137557;27;20027;-84
2022/07/30 09:41:31;;;;;;;7.33;2.47;;;;;;;20.50;59.81;101786.47;5119629;27;20027;-83
2022/07/30 09:43:57;;;;;;;5.28;2.45;;;;;;;20.62;58.84;101783.56;5120175;27;20027;-84
2022/07/30 09:46:40;;;;;;;8.85;2.38;;;;;;;20.67;58.88;101786.41;5119910;27;20039;-83
2022/07/30 09:49:36;;;;;;;5.25;2.58;;;;;;;20.78;58.63;101777.13;5119162;27;20047;-84
2022/07/30 09:52:01;;;;;;;4.30;2.30;;;;;;;20.87;57.78;101768.38;5102300;27;20086;-84
2022/07/30 09:54:47;;;;;;;5.00;2.10;;;;;;;20.99;57.32;101764.38;5101910;27;20478;-84
2022/07/30 09:57:12;;;;;;;6.75;2.35;;;;;;;21.11;55.63;101771.63;5119058;27;20034;-84
2022/07/30 09:59:37;;;;;;;7.07;2.50;;;;;;;21.16;54.62;101766.97;5101750;27;20063;-84
2022/07/30 10:02:03;;;;;;;3.00;2.10;;;;;;;21.18;55.56;101764.75;5101525;27;20531;-84
2022/07/30 10:04:31;;;;;;;7.50;2.10;;;;;;;21.30;54.24;101763.75;5134123;27;20107;-84
2022/07/30 10:06:59;;;;;;;5.00;2.00;;;;;;;21.52;55.49;101758.94;5119618;27;20114;-84
2022/07/30 10:09:32;;;;;;;3.40;1.97;;;;;;;21.69;54.31;101757.94;5137167;27;20039;-84
2022/07/30 10:12:04;;;;;;;3.60;1.98;;;;;;;21.86;52.64;101774.31;5118960;27;20023;-84
2022/07/30 10:14:34;;;;;;;3.42;2.47;;;;;;;21.89;52.38;101760.81;5118879;27;20102;-84
2022/07/30 10:17:00;;;;;;;7.07;2.00;;;;;;;22.06;52.75;101760.59;5119489;27;20031;-84
2022/07/30 10:19:26;;;;;;;5.28;1.92;;;;;;;22.07;51.72;101759.50;5137375;27;20039;-84
2022/07/30 10:21:55;;;;;;;5.40;1.90;;;;;;;22.27;51.13;101754.31;5118564;27;20467;-84
2022/07/30 10:24:22;;;;;;;3.38;1.85;;;;;;;22.50;51.39;101751.06;5118334;27;20031;-84
2022/07/30 10:26:49;;;;;;;4.47;2.20;;;;;;;22.77;50.03;101758.28;5136777;27;20106;-84
2022/07/30 10:29:19;;;;;;;6.50;2.05;;;;;;;22.89;48.89;101758.00;5118248;27;20459;-84
2022/07/30 10:31:45;;;;;;;3.63;1.85;;;;;;;23.18;48.71;101752.75;5136725;27;20046;-84
2022/07/30 10:34:12;;;;;;;3.33;2.00;;;;;;;23.46;47.81;101754.09;5118789;27;20058;-84
2022/07/30 10:36:50;;;;;;;6.18;2.28;;;;;;;23.74;48.88;101760.09;5118686;27;20451;-84
2022/07/30 10:39:28;;;;;;;4.78;2.05;;;;;;;23.78;46.85;101760.34;5152924;27;20050;-84
2022/07/30 10:42:15;;;;;;;3.10;1.90;;;;;;;24.07;46.60;101751.41;5137206;27;20027;-84
2022/07/30 10:45:09;;;;;;;5.97;2.22;;;;;;;24.22;46.31;101750.50;5117845;27;20071;-83
2022/07/30 10:47:37;;;;;;;3.33;1.90;;;;;;;24.58;45.50;101741.94;5118542;27;20069;-83
2022/07/30 10:50:25;;;;;;;4.93;2.00;;;;;;;24.86;46.15;101752.28;5117739;27;20038;-83
2022/07/30 10:52:57;;;;;;;6.75;2.08;;;;;;;25.07;43.24;101762.38;5119078;27;20035;-83
2022/07/30 10:55:24;;;;;;;5.35;2.25;;;;;;;24.91;42.54;101761.69;5117741;27;20478;-83
2022/07/30 10:58:00;;;;;;;4.93;2.20;;;;;;;25.43;44.01;101753.72;5135749;27;20513;-83
2022/07/30 11:00:27;;;;;;;4.47;2.20;;;;;;;25.98;42.42;101756.13;5136245;27;20031;-83
2022/07/30 11:03:19;;;;;;;4.82;2.20;;;;;;;26.70;42.92;101755.94;5100745;27;20034;-83
2022/07/30 11:05:47;;;;;;;7.22;2.03;;;;;;;27.14;40.05;101743.50;5136630;27;20070;-83
2022/07/30 11:08:40;;;;;;;3.95;2.10;;;;;;;26.99;40.36;101745.72;5117454;27;20069;-83
2022/07/30 11:11:29;;;;;;;7.15;2.10;;;;;;;27.13;40.91;101747.41;5114358;27;20035;-83
2022/07/30 11:13:59;;;;;;;7.20;2.43;;;;;;;27.08;38.85;101741.13;5123755;27;20039;-83
2022/07/30 11:16:31;;;;;;;4.30;2.25;;;;;;;27.19;38.76;101753.72;5117310;27;20104;-84
2022/07/30 11:19:19;;;;;;;5.97;2.20;;;;;;;27.88;40.42;101739.00;5117448;27;20066;-84
2022/07/30 11:21:46;;;;;;;4.57;2.20;;;;;;;28.46;37.38;101736.63;5117607;27;20023;-85